POE2631 CYTZ-CYQT
Flight info
| Callsign | POE2631 |
|---|---|
| Flight time | 1h 54m |
| Altitude | 24000 |
| Route | IKLEN DCT TONNY DCT YEE DCT SILVU DCT DUPUL NOTER4 |
| Aircraft | DH8D/M-SDE2E3FGRY/H |
Departure
| Time | 2026-04-23 15:23 |
|---|---|
| Airport | Billy Bishop Toronto City Airport (CYTZ) |
Arrival
| Time | 2026-04-23 17:17 |
|---|---|
| Airport | Thunder Bay International Airport (CYQT) |
| Time | Latitude | Longitude | Altitude | Speed | Heading |
|---|---|---|---|---|---|
| 2026-04-23 14:58 | 43.63087 | -79.39580 | 239 ft | 0 kts | 342° |
| 2026-04-23 15:14 | 43.63085 | -79.39580 | 239 ft | 1 kts | 343° |
| 2026-04-23 15:14 | 43.63071 | -79.39573 | 239 ft | 2 kts | 341° |
| 2026-04-23 15:14 | 43.63057 | -79.39567 | 239 ft | 2 kts | 342° |
| 2026-04-23 15:15 | 43.63043 | -79.39561 | 239 ft | 2 kts | 342° |
| 2026-04-23 15:15 | 43.63034 | -79.39557 | 239 ft | 1 kts | 340° |
| 2026-04-23 15:15 | 43.63028 | -79.39547 | 239 ft | 1 kts | 275° |
| 2026-04-23 15:15 | 43.63029 | -79.39539 | 239 ft | 1 kts | 244° |
| 2026-04-23 15:16 | 43.63031 | -79.39532 | 239 ft | 0 kts | 253° |
| 2026-04-23 15:16 | 43.63031 | -79.39533 | 239 ft | 0 kts | 253° |
| 2026-04-23 15:19 | 43.63030 | -79.39538 | 238 ft | 2 kts | 253° |
| 2026-04-23 15:19 | 43.63023 | -79.39569 | 239 ft | 4 kts | 253° |
| 2026-04-23 15:19 | 43.63012 | -79.39617 | 239 ft | 5 kts | 252° |
| 2026-04-23 15:19 | 43.62997 | -79.39676 | 239 ft | 7 kts | 252° |
| 2026-04-23 15:20 | 43.62987 | -79.39721 | 239 ft | 7 kts | 252° |
| 2026-04-23 15:20 | 43.62968 | -79.39820 | 239 ft | 8 kts | 271° |
| 2026-04-23 15:20 | 43.62981 | -79.39885 | 241 ft | 5 kts | 296° |
| 2026-04-23 15:20 | 43.62996 | -79.39930 | 241 ft | 5 kts | 291° |
| 2026-04-23 15:21 | 43.63016 | -79.40033 | 242 ft | 13 kts | 267° |
| 2026-04-23 15:21 | 43.62978 | -79.40144 | 242 ft | 12 kts | 233° |
| 2026-04-23 15:21 | 43.62914 | -79.40225 | 242 ft | 12 kts | 220° |
| 2026-04-23 15:21 | 43.62846 | -79.40303 | 242 ft | 12 kts | 219° |
| 2026-04-23 15:22 | 43.62774 | -79.40306 | 242 ft | 10 kts | 128° |
| 2026-04-23 15:22 | 43.62801 | -79.40127 | 241 ft | 44 kts | 74° |
| 2026-04-23 15:22 | 43.62994 | -79.39327 | 239 ft | 124 kts | 71° |
| 2026-04-23 15:22 | 43.63314 | -79.38076 | 502 ft | 148 kts | 69° |
| 2026-04-23 15:23 | 43.63625 | -79.36687 | 1076 ft | 159 kts | 74° |
| 2026-04-23 15:23 | 43.63979 | -79.35204 | 1693 ft | 168 kts | 68° |
| 2026-04-23 15:23 | 43.64798 | -79.34055 | 2211 ft | 181 kts | 20° |
| 2026-04-23 15:23 | 43.66059 | -79.34225 | 2778 ft | 193 kts | 338° |
| 2026-04-23 15:24 | 43.67198 | -79.35094 | 3622 ft | 185 kts | 332° |
| 2026-04-23 15:24 | 43.68249 | -79.35944 | 4573 ft | 173 kts | 331° |
| 2026-04-23 15:24 | 43.69266 | -79.36774 | 5318 ft | 171 kts | 331° |
| 2026-04-23 15:24 | 43.70260 | -79.37595 | 6084 ft | 167 kts | 330° |
| 2026-04-23 15:25 | 43.71238 | -79.38409 | 6811 ft | 165 kts | 329° |
| 2026-04-23 15:25 | 43.72215 | -79.39226 | 7456 ft | 168 kts | 329° |
| 2026-04-23 15:25 | 43.72877 | -79.39785 | 7938 ft | 167 kts | 329° |
| 2026-04-23 15:25 | 43.74164 | -79.40872 | 8860 ft | 166 kts | 328° |
| 2026-04-23 15:26 | 43.75141 | -79.41702 | 9562 ft | 164 kts | 328° |
| 2026-04-23 15:26 | 43.76087 | -79.42510 | 10234 ft | 164 kts | 327° |
| 2026-04-23 15:26 | 43.77052 | -79.43345 | 10793 ft | 167 kts | 327° |
| 2026-04-23 15:26 | 43.78112 | -79.44267 | 10886 ft | 192 kts | 327° |
| 2026-04-23 15:27 | 43.79289 | -79.45287 | 11134 ft | 207 kts | 327° |
| 2026-04-23 15:27 | 43.80506 | -79.46341 | 11636 ft | 209 kts | 328° |
| 2026-04-23 15:27 | 43.81751 | -79.47417 | 12092 ft | 213 kts | 328° |
| 2026-04-23 15:27 | 43.83010 | -79.48503 | 12673 ft | 212 kts | 328° |
| 2026-04-23 15:28 | 43.84245 | -79.49569 | 13202 ft | 212 kts | 328° |
| 2026-04-23 15:28 | 43.85505 | -79.50655 | 13703 ft | 213 kts | 328° |
| 2026-04-23 15:28 | 43.86763 | -79.51740 | 14142 ft | 217 kts | 328° |
| 2026-04-23 15:28 | 43.88040 | -79.52841 | 14664 ft | 215 kts | 328° |
| 2026-04-23 15:29 | 43.89321 | -79.53946 | 15075 ft | 218 kts | 328° |
| 2026-04-23 15:29 | 43.90598 | -79.55048 | 15499 ft | 219 kts | 328° |
| 2026-04-23 15:29 | 43.91893 | -79.56165 | 15882 ft | 222 kts | 328° |
| 2026-04-23 15:29 | 43.93209 | -79.57301 | 16308 ft | 222 kts | 327° |
| 2026-04-23 15:30 | 43.94516 | -79.58430 | 16683 ft | 223 kts | 327° |
| 2026-04-23 15:30 | 43.95826 | -79.59561 | 17097 ft | 223 kts | 327° |
| 2026-04-23 15:30 | 43.97142 | -79.60698 | 17507 ft | 222 kts | 327° |
| 2026-04-23 15:30 | 43.98457 | -79.61835 | 17818 ft | 225 kts | 327° |
| 2026-04-23 15:31 | 43.99773 | -79.62974 | 18160 ft | 227 kts | 327° |
| 2026-04-23 15:31 | 44.01123 | -79.64143 | 18480 ft | 228 kts | 327° |
| 2026-04-23 15:31 | 44.02465 | -79.65304 | 18837 ft | 228 kts | 326° |
| 2026-04-23 15:31 | 44.03829 | -79.66486 | 19122 ft | 232 kts | 326° |
| 2026-04-23 15:32 | 44.05183 | -79.67649 | 19515 ft | 230 kts | 328° |
| 2026-04-23 15:32 | 44.06684 | -79.68471 | 19721 ft | 238 kts | 341° |
| 2026-04-23 15:32 | 44.08311 | -79.69002 | 20070 ft | 238 kts | 342° |
| 2026-04-23 15:32 | 44.09921 | -79.69516 | 20352 ft | 238 kts | 342° |
| 2026-04-23 15:33 | 44.11541 | -79.70037 | 20633 ft | 240 kts | 342° |
| 2026-04-23 15:33 | 44.13167 | -79.70565 | 20873 ft | 241 kts | 342° |
| 2026-04-23 15:33 | 44.14812 | -79.71102 | 21121 ft | 243 kts | 341° |
| 2026-04-23 15:33 | 44.16459 | -79.71643 | 21350 ft | 245 kts | 342° |
| 2026-04-23 15:34 | 44.18111 | -79.72184 | 21613 ft | 245 kts | 342° |
| 2026-04-23 15:34 | 44.19806 | -79.72584 | 21808 ft | 248 kts | 347° |
| 2026-04-23 15:34 | 44.21526 | -79.72881 | 22008 ft | 250 kts | 347° |
| 2026-04-23 15:34 | 44.23248 | -79.73176 | 22191 ft | 251 kts | 347° |
| 2026-04-23 15:35 | 44.24986 | -79.73473 | 22432 ft | 252 kts | 347° |
| 2026-04-23 15:35 | 44.26714 | -79.73772 | 22667 ft | 250 kts | 347° |
| 2026-04-23 15:35 | 44.28456 | -79.74076 | 22759 ft | 254 kts | 347° |
| 2026-04-23 15:35 | 44.30210 | -79.74381 | 23001 ft | 253 kts | 347° |
| 2026-04-23 15:36 | 44.31945 | -79.74685 | 23180 ft | 253 kts | 347° |
| 2026-04-23 15:36 | 44.33706 | -79.74996 | 23273 ft | 257 kts | 347° |
| 2026-04-23 15:36 | 44.35484 | -79.75308 | 23509 ft | 254 kts | 346° |
| 2026-04-23 15:36 | 44.37248 | -79.75620 | 23615 ft | 257 kts | 347° |
| 2026-04-23 15:37 | 44.39008 | -79.75931 | 23797 ft | 256 kts | 347° |
| 2026-04-23 15:37 | 44.40772 | -79.76241 | 24014 ft | 255 kts | 347° |
| 2026-04-23 15:37 | 44.41935 | -79.76447 | 24063 ft | 257 kts | 347° |
| 2026-04-23 15:37 | 44.44328 | -79.76874 | 24086 ft | 264 kts | 347° |
| 2026-04-23 15:38 | 44.46179 | -79.77204 | 24086 ft | 268 kts | 347° |
| 2026-04-23 15:38 | 44.48025 | -79.77533 | 24086 ft | 272 kts | 347° |
| 2026-04-23 15:38 | 44.49938 | -79.77873 | 24086 ft | 275 kts | 347° |
| 2026-04-23 15:38 | 44.51833 | -79.78210 | 24086 ft | 278 kts | 347° |
| 2026-04-23 15:39 | 44.53770 | -79.78555 | 24085 ft | 281 kts | 347° |
| 2026-04-23 15:39 | 44.55703 | -79.78899 | 24084 ft | 283 kts | 347° |
| 2026-04-23 15:39 | 44.57612 | -79.79439 | 24060 ft | 279 kts | 335° |
| 2026-04-23 15:39 | 44.59124 | -79.81075 | 24105 ft | 275 kts | 313° |
| 2026-04-23 15:40 | 44.60351 | -79.83167 | 24091 ft | 278 kts | 310° |
| 2026-04-23 15:40 | 44.61555 | -79.85282 | 24082 ft | 280 kts | 310° |
| 2026-04-23 15:40 | 44.62760 | -79.87411 | 24080 ft | 282 kts | 310° |
| 2026-04-23 15:40 | 44.63987 | -79.89579 | 24081 ft | 283 kts | 310° |
| 2026-04-23 15:41 | 44.65208 | -79.91741 | 24080 ft | 283 kts | 310° |
| 2026-04-23 15:41 | 44.66431 | -79.93906 | 24079 ft | 284 kts | 310° |
| 2026-04-23 15:41 | 44.67661 | -79.96085 | 24075 ft | 284 kts | 310° |
| 2026-04-23 15:41 | 44.68881 | -79.98248 | 24075 ft | 285 kts | 310° |
| 2026-04-23 15:42 | 44.70118 | -80.00442 | 24075 ft | 286 kts | 310° |
| 2026-04-23 15:42 | 44.71342 | -80.02615 | 24075 ft | 286 kts | 310° |
| 2026-04-23 15:42 | 44.72577 | -80.04808 | 24079 ft | 286 kts | 310° |
| 2026-04-23 15:42 | 44.73815 | -80.07010 | 24081 ft | 286 kts | 310° |
| 2026-04-23 15:43 | 44.75043 | -80.09193 | 24078 ft | 287 kts | 310° |
| 2026-04-23 15:43 | 44.76290 | -80.11414 | 24078 ft | 287 kts | 310° |
| 2026-04-23 15:43 | 44.77513 | -80.13593 | 24079 ft | 287 kts | 310° |
| 2026-04-23 15:43 | 44.78754 | -80.15805 | 24079 ft | 288 kts | 310° |
| 2026-04-23 15:44 | 44.79998 | -80.18025 | 24077 ft | 288 kts | 310° |
| 2026-04-23 15:44 | 44.81237 | -80.20236 | 24079 ft | 288 kts | 310° |
| 2026-04-23 15:44 | 44.82467 | -80.22435 | 24082 ft | 288 kts | 310° |
| 2026-04-23 15:44 | 44.83717 | -80.24669 | 24079 ft | 289 kts | 309° |
| 2026-04-23 15:45 | 44.84942 | -80.26862 | 24079 ft | 289 kts | 310° |
| 2026-04-23 15:45 | 44.86194 | -80.29104 | 24079 ft | 289 kts | 310° |
| 2026-04-23 15:45 | 44.87425 | -80.31310 | 24077 ft | 289 kts | 309° |
| 2026-04-23 15:45 | 44.88665 | -80.33535 | 24080 ft | 289 kts | 310° |
| 2026-04-23 15:46 | 44.89916 | -80.35782 | 24080 ft | 290 kts | 310° |
| 2026-04-23 15:46 | 44.91145 | -80.37990 | 24077 ft | 290 kts | 309° |
| 2026-04-23 15:46 | 44.92393 | -80.40233 | 24082 ft | 290 kts | 310° |
| 2026-04-23 15:46 | 44.93639 | -80.42476 | 24081 ft | 290 kts | 310° |
| 2026-04-23 15:47 | 44.94883 | -80.44717 | 24081 ft | 290 kts | 310° |
| 2026-04-23 15:47 | 44.96117 | -80.46941 | 24076 ft | 290 kts | 309° |
| 2026-04-23 15:47 | 44.97358 | -80.49179 | 24081 ft | 290 kts | 309° |
| 2026-04-23 15:47 | 44.98605 | -80.51430 | 24082 ft | 291 kts | 310° |
| 2026-04-23 15:48 | 44.99858 | -80.53693 | 24086 ft | 291 kts | 310° |
| 2026-04-23 15:48 | 45.01103 | -80.55943 | 24087 ft | 292 kts | 310° |
| 2026-04-23 15:48 | 45.02338 | -80.58177 | 24087 ft | 292 kts | 310° |
| 2026-04-23 15:48 | 45.03593 | -80.60452 | 24086 ft | 293 kts | 310° |
| 2026-04-23 15:49 | 45.04850 | -80.62728 | 24083 ft | 293 kts | 310° |
| 2026-04-23 15:49 | 45.06096 | -80.64989 | 24086 ft | 293 kts | 309° |
| 2026-04-23 15:49 | 45.07350 | -80.67266 | 24088 ft | 293 kts | 309° |
| 2026-04-23 15:49 | 45.08590 | -80.69518 | 24087 ft | 293 kts | 309° |
| 2026-04-23 15:50 | 45.09847 | -80.71803 | 24085 ft | 294 kts | 309° |
| 2026-04-23 15:50 | 45.11095 | -80.74075 | 24091 ft | 294 kts | 309° |
| 2026-04-23 15:50 | 45.12353 | -80.76366 | 24090 ft | 295 kts | 309° |
| 2026-04-23 15:50 | 45.13621 | -80.78677 | 24092 ft | 296 kts | 309° |
| 2026-04-23 15:51 | 45.14875 | -80.80962 | 24086 ft | 297 kts | 309° |
| 2026-04-23 15:51 | 45.16149 | -80.83289 | 24092 ft | 297 kts | 309° |
| 2026-04-23 15:51 | 45.17404 | -80.85581 | 24087 ft | 298 kts | 309° |
| 2026-04-23 15:51 | 45.18676 | -80.87908 | 24091 ft | 298 kts | 309° |
| 2026-04-23 15:52 | 45.19942 | -80.90224 | 24087 ft | 298 kts | 309° |
| 2026-04-23 15:52 | 45.21199 | -80.92527 | 24088 ft | 298 kts | 309° |
| 2026-04-23 15:52 | 45.22478 | -80.94871 | 24092 ft | 298 kts | 309° |
| 2026-04-23 15:52 | 45.23744 | -80.97194 | 24091 ft | 298 kts | 309° |
| 2026-04-23 15:53 | 45.24999 | -80.99497 | 24089 ft | 298 kts | 309° |
| 2026-04-23 15:53 | 45.26279 | -81.01849 | 24095 ft | 299 kts | 309° |
| 2026-04-23 15:53 | 45.27549 | -81.04184 | 24088 ft | 299 kts | 309° |
| 2026-04-23 15:53 | 45.28818 | -81.06519 | 24086 ft | 300 kts | 309° |
| 2026-04-23 15:54 | 45.30078 | -81.08840 | 24090 ft | 299 kts | 309° |
| 2026-04-23 15:54 | 45.31352 | -81.11189 | 24088 ft | 299 kts | 309° |
| 2026-04-23 15:54 | 45.32627 | -81.13542 | 24088 ft | 299 kts | 309° |
| 2026-04-23 15:54 | 45.33883 | -81.15861 | 24078 ft | 299 kts | 309° |
| 2026-04-23 15:55 | 45.35157 | -81.18215 | 24084 ft | 299 kts | 309° |
| 2026-04-23 15:55 | 45.36425 | -81.20561 | 24084 ft | 299 kts | 309° |
| 2026-04-23 15:55 | 45.37677 | -81.22878 | 24082 ft | 299 kts | 308° |
| 2026-04-23 15:55 | 45.38951 | -81.25239 | 24082 ft | 299 kts | 308° |
| 2026-04-23 15:56 | 45.40208 | -81.27570 | 24077 ft | 299 kts | 309° |
| 2026-04-23 15:56 | 45.41481 | -81.29932 | 24075 ft | 299 kts | 309° |
| 2026-04-23 15:56 | 45.42746 | -81.32282 | 24084 ft | 299 kts | 309° |
| 2026-04-23 15:56 | 45.44001 | -81.34614 | 24087 ft | 299 kts | 308° |
| 2026-04-23 15:57 | 45.45264 | -81.36962 | 24087 ft | 299 kts | 309° |
| 2026-04-23 15:57 | 45.46514 | -81.39289 | 24079 ft | 299 kts | 308° |
| 2026-04-23 15:57 | 45.47780 | -81.41648 | 24079 ft | 299 kts | 308° |
| 2026-04-23 15:57 | 45.49032 | -81.43983 | 24086 ft | 298 kts | 308° |
| 2026-04-23 15:58 | 45.50304 | -81.46358 | 24082 ft | 298 kts | 308° |
| 2026-04-23 15:58 | 45.51561 | -81.48706 | 24084 ft | 298 kts | 308° |
| 2026-04-23 15:58 | 45.52806 | -81.51035 | 24081 ft | 298 kts | 308° |
| 2026-04-23 15:58 | 45.54055 | -81.53370 | 24079 ft | 298 kts | 308° |
| 2026-04-23 15:59 | 45.55319 | -81.55737 | 24084 ft | 298 kts | 308° |
| 2026-04-23 15:59 | 45.56563 | -81.58067 | 24084 ft | 298 kts | 308° |
| 2026-04-23 15:59 | 45.57822 | -81.60430 | 24083 ft | 298 kts | 308° |
| 2026-04-23 15:59 | 45.59079 | -81.62790 | 24082 ft | 299 kts | 308° |
| 2026-04-23 16:00 | 45.60334 | -81.65147 | 24084 ft | 299 kts | 308° |
| 2026-04-23 16:00 | 45.61582 | -81.67493 | 24083 ft | 299 kts | 308° |
| 2026-04-23 16:00 | 45.62844 | -81.69869 | 24088 ft | 299 kts | 307° |
| 2026-04-23 16:00 | 45.64101 | -81.72237 | 24086 ft | 299 kts | 307° |
| 2026-04-23 16:01 | 45.65350 | -81.74590 | 24083 ft | 299 kts | 307° |
| 2026-04-23 16:01 | 45.66615 | -81.76978 | 24085 ft | 299 kts | 307° |
| 2026-04-23 16:01 | 45.67860 | -81.79330 | 24087 ft | 300 kts | 307° |
| 2026-04-23 16:01 | 45.69127 | -81.81723 | 24088 ft | 300 kts | 307° |
| 2026-04-23 16:02 | 45.70380 | -81.84094 | 24085 ft | 300 kts | 307° |
| 2026-04-23 16:02 | 45.71636 | -81.86472 | 24080 ft | 300 kts | 307° |
| 2026-04-23 16:02 | 45.72883 | -81.88834 | 24080 ft | 300 kts | 307° |
| 2026-04-23 16:02 | 45.74124 | -81.91204 | 24084 ft | 300 kts | 306° |
| 2026-04-23 16:03 | 45.75244 | -81.93727 | 24091 ft | 300 kts | 301° |
| 2026-04-23 16:03 | 45.76299 | -81.96319 | 24084 ft | 300 kts | 301° |
| 2026-04-23 16:03 | 45.77335 | -81.98872 | 24082 ft | 300 kts | 301° |
| 2026-04-23 16:03 | 45.78379 | -82.01446 | 24082 ft | 300 kts | 301° |
| 2026-04-23 16:04 | 45.79434 | -82.04044 | 24084 ft | 300 kts | 301° |
| 2026-04-23 16:04 | 45.80483 | -82.06628 | 24083 ft | 300 kts | 301° |
| 2026-04-23 16:04 | 45.81536 | -82.09222 | 24088 ft | 300 kts | 301° |
| 2026-04-23 16:04 | 45.82580 | -82.11793 | 24089 ft | 300 kts | 301° |
| 2026-04-23 16:05 | 45.83282 | -82.13522 | 24087 ft | 300 kts | 301° |
| 2026-04-23 16:05 | 45.84681 | -82.16973 | 24082 ft | 301 kts | 301° |
| 2026-04-23 16:05 | 45.85734 | -82.19572 | 24082 ft | 301 kts | 301° |
| 2026-04-23 16:05 | 45.86775 | -82.22143 | 24083 ft | 301 kts | 301° |
| 2026-04-23 16:06 | 45.87821 | -82.24728 | 24079 ft | 301 kts | 300° |
| 2026-04-23 16:06 | 45.88882 | -82.27354 | 24076 ft | 301 kts | 301° |
| 2026-04-23 16:06 | 45.89921 | -82.29925 | 24075 ft | 301 kts | 300° |
| 2026-04-23 16:06 | 45.90978 | -82.32546 | 24078 ft | 301 kts | 301° |
| 2026-04-23 16:07 | 45.92019 | -82.35127 | 24080 ft | 301 kts | 300° |
| 2026-04-23 16:07 | 45.93072 | -82.37742 | 24080 ft | 301 kts | 300° |
| 2026-04-23 16:07 | 45.94126 | -82.40360 | 24075 ft | 302 kts | 300° |
| 2026-04-23 16:07 | 45.95164 | -82.42942 | 24079 ft | 302 kts | 300° |
| 2026-04-23 16:08 | 45.96220 | -82.45571 | 24082 ft | 302 kts | 300° |
| 2026-04-23 16:08 | 45.97260 | -82.48162 | 24082 ft | 302 kts | 300° |
| 2026-04-23 16:08 | 45.98311 | -82.50784 | 24072 ft | 302 kts | 300° |
| 2026-04-23 16:08 | 45.99352 | -82.53382 | 24071 ft | 302 kts | 300° |
| 2026-04-23 16:09 | 46.00405 | -82.56014 | 24071 ft | 302 kts | 300° |
| 2026-04-23 16:09 | 46.01448 | -82.58624 | 24075 ft | 302 kts | 300° |
| 2026-04-23 16:09 | 46.02487 | -82.61224 | 24072 ft | 302 kts | 300° |
| 2026-04-23 16:09 | 46.03536 | -82.63852 | 24071 ft | 303 kts | 300° |
| 2026-04-23 16:10 | 46.04577 | -82.66463 | 24073 ft | 303 kts | 300° |
| 2026-04-23 16:10 | 46.05626 | -82.69098 | 24067 ft | 303 kts | 300° |
| 2026-04-23 16:10 | 46.06675 | -82.71735 | 24065 ft | 304 kts | 299° |
| 2026-04-23 16:10 | 46.07718 | -82.74358 | 24067 ft | 304 kts | 299° |
| 2026-04-23 16:11 | 46.08774 | -82.77016 | 24062 ft | 304 kts | 299° |
| 2026-04-23 16:11 | 46.09813 | -82.79636 | 24058 ft | 304 kts | 300° |
| 2026-04-23 16:11 | 46.10873 | -82.82311 | 24059 ft | 305 kts | 300° |
| 2026-04-23 16:11 | 46.11919 | -82.84952 | 24063 ft | 305 kts | 299° |
| 2026-04-23 16:12 | 46.12963 | -82.87589 | 24058 ft | 306 kts | 299° |
| 2026-04-23 16:12 | 46.14028 | -82.90285 | 24055 ft | 307 kts | 300° |
| 2026-04-23 16:12 | 46.15071 | -82.92928 | 24054 ft | 307 kts | 299° |
| 2026-04-23 16:12 | 46.16135 | -82.95625 | 24054 ft | 307 kts | 299° |
| 2026-04-23 16:13 | 46.17186 | -82.98290 | 24054 ft | 308 kts | 299° |
| 2026-04-23 16:13 | 46.19294 | -83.03648 | 24049 ft | 309 kts | 299° |
| 2026-04-23 16:13 | 46.20358 | -83.06357 | 24048 ft | 309 kts | 299° |
| 2026-04-23 16:14 | 46.21410 | -83.09038 | 24051 ft | 309 kts | 299° |
| 2026-04-23 16:14 | 46.22467 | -83.11732 | 24055 ft | 310 kts | 299° |
| 2026-04-23 16:14 | 46.23536 | -83.14459 | 24053 ft | 310 kts | 300° |
| 2026-04-23 16:14 | 46.24589 | -83.17152 | 24049 ft | 311 kts | 299° |
| 2026-04-23 16:15 | 46.25645 | -83.19851 | 24049 ft | 311 kts | 299° |
| 2026-04-23 16:15 | 46.26715 | -83.22591 | 24051 ft | 311 kts | 299° |
| 2026-04-23 16:15 | 46.27772 | -83.25301 | 24049 ft | 311 kts | 299° |
| 2026-04-23 16:15 | 46.28843 | -83.28048 | 24049 ft | 311 kts | 299° |
| 2026-04-23 16:16 | 46.29904 | -83.30772 | 24045 ft | 311 kts | 299° |
| 2026-04-23 16:16 | 46.30956 | -83.33476 | 24042 ft | 311 kts | 299° |
| 2026-04-23 16:16 | 46.32021 | -83.36216 | 24043 ft | 311 kts | 299° |
| 2026-04-23 16:16 | 46.33076 | -83.38934 | 24043 ft | 311 kts | 299° |
| 2026-04-23 16:17 | 46.34133 | -83.41660 | 24043 ft | 311 kts | 299° |
| 2026-04-23 16:17 | 46.35185 | -83.44375 | 24045 ft | 311 kts | 299° |
| 2026-04-23 16:17 | 46.36239 | -83.47096 | 24041 ft | 311 kts | 299° |
| 2026-04-23 16:17 | 46.37303 | -83.49847 | 24036 ft | 311 kts | 299° |
| 2026-04-23 16:18 | 46.38364 | -83.52593 | 24032 ft | 311 kts | 299° |
| 2026-04-23 16:18 | 46.39413 | -83.55312 | 24034 ft | 311 kts | 299° |
| 2026-04-23 16:18 | 46.40470 | -83.58053 | 24034 ft | 311 kts | 299° |
| 2026-04-23 16:18 | 46.41510 | -83.60754 | 24028 ft | 311 kts | 299° |
| 2026-04-23 16:19 | 46.42566 | -83.63499 | 24028 ft | 311 kts | 299° |
| 2026-04-23 16:19 | 46.43614 | -83.66225 | 24027 ft | 311 kts | 298° |
| 2026-04-23 16:19 | 46.44673 | -83.68982 | 24024 ft | 311 kts | 298° |
| 2026-04-23 16:19 | 46.45721 | -83.71713 | 24020 ft | 312 kts | 298° |
| 2026-04-23 16:20 | 46.46768 | -83.74446 | 24019 ft | 312 kts | 298° |
| 2026-04-23 16:20 | 46.47820 | -83.77194 | 24017 ft | 312 kts | 298° |
| 2026-04-23 16:20 | 46.48882 | -83.79972 | 24016 ft | 312 kts | 298° |
| 2026-04-23 16:20 | 46.49936 | -83.82728 | 24015 ft | 312 kts | 298° |
| 2026-04-23 16:21 | 46.50973 | -83.85448 | 24014 ft | 312 kts | 298° |
| 2026-04-23 16:21 | 46.52031 | -83.88222 | 24015 ft | 312 kts | 298° |
| 2026-04-23 16:21 | 46.53071 | -83.90951 | 24014 ft | 312 kts | 298° |
| 2026-04-23 16:21 | 46.54127 | -83.93727 | 24010 ft | 312 kts | 298° |
| 2026-04-23 16:22 | 46.55178 | -83.96492 | 24010 ft | 312 kts | 298° |
| 2026-04-23 16:22 | 46.56226 | -83.99252 | 24003 ft | 312 kts | 298° |
| 2026-04-23 16:22 | 46.57263 | -84.01984 | 24003 ft | 312 kts | 298° |
| 2026-04-23 16:22 | 46.58304 | -84.04732 | 24001 ft | 312 kts | 298° |
| 2026-04-23 16:23 | 46.59358 | -84.07514 | 23998 ft | 312 kts | 298° |
| 2026-04-23 16:23 | 46.60399 | -84.10268 | 24000 ft | 312 kts | 298° |
| 2026-04-23 16:23 | 46.61445 | -84.13036 | 24002 ft | 312 kts | 298° |
| 2026-04-23 16:23 | 46.62485 | -84.15792 | 24002 ft | 312 kts | 298° |
| 2026-04-23 16:24 | 46.63534 | -84.18574 | 24001 ft | 312 kts | 298° |
| 2026-04-23 16:24 | 46.64564 | -84.21310 | 24000 ft | 312 kts | 298° |
| 2026-04-23 16:24 | 46.65606 | -84.24078 | 23993 ft | 312 kts | 298° |
| 2026-04-23 16:24 | 46.66651 | -84.26858 | 23993 ft | 312 kts | 298° |
| 2026-04-23 16:25 | 46.67685 | -84.29611 | 23993 ft | 312 kts | 298° |
| 2026-04-23 16:25 | 46.68734 | -84.32407 | 23988 ft | 313 kts | 298° |
| 2026-04-23 16:25 | 46.69768 | -84.35167 | 23994 ft | 313 kts | 298° |
| 2026-04-23 16:25 | 46.70808 | -84.37946 | 23990 ft | 313 kts | 298° |
| 2026-04-23 16:26 | 46.71854 | -84.40741 | 23987 ft | 313 kts | 298° |
| 2026-04-23 16:26 | 46.72885 | -84.43503 | 23988 ft | 314 kts | 298° |
| 2026-04-23 16:26 | 46.73926 | -84.46291 | 23989 ft | 314 kts | 298° |
| 2026-04-23 16:26 | 46.74974 | -84.49103 | 23988 ft | 314 kts | 298° |
| 2026-04-23 16:27 | 46.76015 | -84.51898 | 23987 ft | 314 kts | 298° |
| 2026-04-23 16:27 | 46.77046 | -84.54668 | 23986 ft | 314 kts | 298° |
| 2026-04-23 16:27 | 46.78092 | -84.57484 | 23984 ft | 314 kts | 298° |
| 2026-04-23 16:27 | 46.79124 | -84.60263 | 23986 ft | 314 kts | 298° |
| 2026-04-23 16:28 | 46.80168 | -84.63079 | 23983 ft | 315 kts | 298° |
| 2026-04-23 16:28 | 46.81202 | -84.65868 | 23981 ft | 316 kts | 298° |
| 2026-04-23 16:28 | 46.82245 | -84.68687 | 23978 ft | 316 kts | 298° |
| 2026-04-23 16:28 | 46.83292 | -84.71520 | 23976 ft | 317 kts | 298° |
| 2026-04-23 16:29 | 46.84337 | -84.74349 | 23975 ft | 317 kts | 298° |
| 2026-04-23 16:29 | 46.85382 | -84.77181 | 23973 ft | 318 kts | 298° |
| 2026-04-23 16:29 | 46.86431 | -84.80027 | 23972 ft | 318 kts | 298° |
| 2026-04-23 16:29 | 46.87467 | -84.82842 | 23971 ft | 319 kts | 298° |
| 2026-04-23 16:30 | 46.88516 | -84.85695 | 23970 ft | 319 kts | 298° |
| 2026-04-23 16:30 | 46.89570 | -84.88562 | 23968 ft | 320 kts | 298° |
| 2026-04-23 16:30 | 46.90619 | -84.91421 | 23967 ft | 320 kts | 298° |
| 2026-04-23 16:30 | 46.91675 | -84.94302 | 23971 ft | 321 kts | 298° |
| 2026-04-23 16:31 | 46.92722 | -84.97160 | 23968 ft | 321 kts | 298° |
| 2026-04-23 16:31 | 46.93767 | -85.00020 | 23967 ft | 322 kts | 298° |
| 2026-04-23 16:31 | 46.94828 | -85.02921 | 23970 ft | 323 kts | 298° |
| 2026-04-23 16:31 | 46.95882 | -85.05810 | 23964 ft | 323 kts | 298° |
| 2026-04-23 16:32 | 46.96942 | -85.08717 | 23964 ft | 324 kts | 298° |
| 2026-04-23 16:32 | 46.97994 | -85.11606 | 23966 ft | 324 kts | 298° |
| 2026-04-23 16:32 | 46.99055 | -85.14522 | 23963 ft | 325 kts | 298° |
| 2026-04-23 16:32 | 47.00116 | -85.17442 | 23960 ft | 325 kts | 298° |
| 2026-04-23 16:33 | 47.01176 | -85.20362 | 23961 ft | 326 kts | 298° |
| 2026-04-23 16:33 | 47.02232 | -85.23274 | 23963 ft | 326 kts | 298° |
| 2026-04-23 16:33 | 47.03298 | -85.26218 | 23961 ft | 326 kts | 298° |
| 2026-04-23 16:33 | 47.04359 | -85.29150 | 23962 ft | 327 kts | 298° |
| 2026-04-23 16:34 | 47.05419 | -85.32082 | 23958 ft | 327 kts | 298° |
| 2026-04-23 16:34 | 47.06483 | -85.35030 | 23955 ft | 328 kts | 298° |
| 2026-04-23 16:34 | 47.07539 | -85.37959 | 23954 ft | 328 kts | 298° |
| 2026-04-23 16:34 | 47.08601 | -85.40907 | 23953 ft | 329 kts | 297° |
| 2026-04-23 16:35 | 47.09670 | -85.43878 | 23943 ft | 329 kts | 297° |
| 2026-04-23 16:35 | 47.10740 | -85.46854 | 23941 ft | 330 kts | 297° |
| 2026-04-23 16:35 | 47.11807 | -85.49824 | 23944 ft | 330 kts | 297° |
| 2026-04-23 16:35 | 47.12876 | -85.52808 | 23942 ft | 330 kts | 297° |
| 2026-04-23 16:36 | 47.13941 | -85.55782 | 23935 ft | 330 kts | 297° |
| 2026-04-23 16:36 | 47.14994 | -85.58725 | 23941 ft | 330 kts | 297° |
| 2026-04-23 16:36 | 47.16061 | -85.61709 | 23938 ft | 330 kts | 297° |
| 2026-04-23 16:36 | 47.17130 | -85.64705 | 23936 ft | 330 kts | 297° |
| 2026-04-23 16:37 | 47.18182 | -85.67653 | 23931 ft | 330 kts | 297° |
| 2026-04-23 16:37 | 47.19244 | -85.70637 | 23932 ft | 330 kts | 297° |
| 2026-04-23 16:37 | 47.20313 | -85.73638 | 23935 ft | 330 kts | 297° |
| 2026-04-23 16:37 | 47.21378 | -85.76636 | 23930 ft | 331 kts | 296° |
| 2026-04-23 16:38 | 47.22440 | -85.79628 | 23926 ft | 331 kts | 296° |
| 2026-04-23 16:38 | 47.23490 | -85.82589 | 23929 ft | 331 kts | 296° |
| 2026-04-23 16:38 | 47.24560 | -85.85611 | 23929 ft | 331 kts | 296° |
| 2026-04-23 16:38 | 47.25628 | -85.88628 | 23921 ft | 332 kts | 296° |
| 2026-04-23 16:39 | 47.26678 | -85.91600 | 23920 ft | 332 kts | 297° |
| 2026-04-23 16:39 | 47.27743 | -85.94618 | 23916 ft | 332 kts | 297° |
| 2026-04-23 16:39 | 47.28811 | -85.97648 | 23913 ft | 333 kts | 297° |
| 2026-04-23 16:39 | 47.29877 | -86.00674 | 23916 ft | 332 kts | 297° |
| 2026-04-23 16:40 | 47.30935 | -86.03683 | 23915 ft | 333 kts | 296° |
| 2026-04-23 16:40 | 47.31991 | -86.06686 | 23912 ft | 332 kts | 296° |
| 2026-04-23 16:40 | 47.33065 | -86.09747 | 23914 ft | 332 kts | 296° |
| 2026-04-23 16:40 | 47.34116 | -86.12746 | 23912 ft | 332 kts | 296° |
| 2026-04-23 16:41 | 47.35175 | -86.15770 | 23910 ft | 332 kts | 296° |
| 2026-04-23 16:41 | 47.36227 | -86.18778 | 23911 ft | 332 kts | 296° |
| 2026-04-23 16:41 | 47.37294 | -86.21832 | 23909 ft | 332 kts | 296° |
| 2026-04-23 16:41 | 47.38352 | -86.24863 | 23903 ft | 332 kts | 296° |
| 2026-04-23 16:42 | 47.39405 | -86.27885 | 23905 ft | 332 kts | 296° |
| 2026-04-23 16:42 | 47.40451 | -86.30891 | 23900 ft | 332 kts | 296° |
| 2026-04-23 16:42 | 47.41510 | -86.33937 | 23901 ft | 332 kts | 296° |
| 2026-04-23 16:42 | 47.42553 | -86.36938 | 23898 ft | 332 kts | 296° |
| 2026-04-23 16:43 | 47.43613 | -86.39992 | 23895 ft | 332 kts | 296° |
| 2026-04-23 16:43 | 47.44666 | -86.43034 | 23891 ft | 333 kts | 296° |
| 2026-04-23 16:43 | 47.45708 | -86.46043 | 23891 ft | 332 kts | 296° |
| 2026-04-23 16:43 | 47.46759 | -86.49083 | 23892 ft | 332 kts | 296° |
| 2026-04-23 16:44 | 47.47810 | -86.52126 | 23892 ft | 332 kts | 296° |
| 2026-04-23 16:44 | 47.48859 | -86.55165 | 23895 ft | 332 kts | 296° |
| 2026-04-23 16:44 | 47.49899 | -86.58185 | 23893 ft | 332 kts | 296° |
| 2026-04-23 16:44 | 47.50950 | -86.61240 | 23889 ft | 332 kts | 296° |
| 2026-04-23 16:45 | 47.51987 | -86.64258 | 23889 ft | 332 kts | 296° |
| 2026-04-23 16:45 | 47.53041 | -86.67326 | 23894 ft | 332 kts | 295° |
| 2026-04-23 16:45 | 47.54078 | -86.70351 | 23887 ft | 332 kts | 295° |
| 2026-04-23 16:45 | 47.55124 | -86.73405 | 23883 ft | 332 kts | 295° |
| 2026-04-23 16:46 | 47.56162 | -86.76439 | 23881 ft | 332 kts | 295° |
| 2026-04-23 16:46 | 47.57210 | -86.79507 | 23882 ft | 332 kts | 295° |
| 2026-04-23 16:46 | 47.58242 | -86.82528 | 23884 ft | 332 kts | 295° |
| 2026-04-23 16:46 | 47.59282 | -86.85581 | 23881 ft | 332 kts | 295° |
| 2026-04-23 16:47 | 47.60323 | -86.88636 | 23883 ft | 332 kts | 295° |
| 2026-04-23 16:47 | 47.61364 | -86.91698 | 23886 ft | 332 kts | 295° |
| 2026-04-23 16:47 | 47.62393 | -86.94728 | 23881 ft | 333 kts | 295° |
| 2026-04-23 16:47 | 47.63435 | -86.97799 | 23879 ft | 333 kts | 295° |
| 2026-04-23 16:48 | 47.64477 | -87.00872 | 23878 ft | 333 kts | 295° |
| 2026-04-23 16:48 | 47.65506 | -87.03914 | 23869 ft | 333 kts | 295° |
| 2026-04-23 16:48 | 47.66548 | -87.06995 | 23869 ft | 333 kts | 295° |
| 2026-04-23 16:48 | 47.67587 | -87.10066 | 23865 ft | 333 kts | 295° |
| 2026-04-23 16:49 | 47.68303 | -87.12092 | 23866 ft | 333 kts | 296° |
| 2026-04-23 16:49 | 47.69777 | -87.16106 | 23873 ft | 333 kts | 297° |
| 2026-04-23 16:49 | 47.70895 | -87.19147 | 23874 ft | 333 kts | 297° |
| 2026-04-23 16:49 | 47.71988 | -87.22131 | 23871 ft | 333 kts | 296° |
| 2026-04-23 16:50 | 47.73100 | -87.25178 | 23873 ft | 333 kts | 296° |
| 2026-04-23 16:50 | 47.74192 | -87.28174 | 23871 ft | 333 kts | 296° |
| 2026-04-23 16:50 | 47.75303 | -87.31229 | 23868 ft | 333 kts | 296° |
| 2026-04-23 16:50 | 47.76402 | -87.34255 | 23862 ft | 333 kts | 296° |
| 2026-04-23 16:51 | 47.77492 | -87.37262 | 23862 ft | 333 kts | 296° |
| 2026-04-23 16:51 | 47.78593 | -87.40304 | 23856 ft | 333 kts | 296° |
| 2026-04-23 16:51 | 47.79691 | -87.43343 | 23859 ft | 333 kts | 296° |
| 2026-04-23 16:51 | 47.80773 | -87.46340 | 23859 ft | 333 kts | 296° |
| 2026-04-23 16:52 | 47.81866 | -87.49373 | 23858 ft | 333 kts | 296° |
| 2026-04-23 16:52 | 47.82966 | -87.52426 | 23859 ft | 333 kts | 296° |
| 2026-04-23 16:52 | 47.84050 | -87.55440 | 23862 ft | 333 kts | 296° |
| 2026-04-23 16:52 | 47.85144 | -87.58486 | 23857 ft | 333 kts | 296° |
| 2026-04-23 16:53 | 47.86238 | -87.61537 | 23852 ft | 333 kts | 296° |
| 2026-04-23 16:53 | 47.87310 | -87.64528 | 23845 ft | 327 kts | 296° |
| 2026-04-23 16:53 | 47.88372 | -87.67500 | 23746 ft | 319 kts | 295° |
| 2026-04-23 16:53 | 47.89398 | -87.70377 | 23441 ft | 319 kts | 295° |
| 2026-04-23 16:54 | 47.90443 | -87.73311 | 23083 ft | 320 kts | 295° |
| 2026-04-23 16:54 | 47.91484 | -87.76233 | 22738 ft | 321 kts | 295° |
| 2026-04-23 16:54 | 47.92526 | -87.79161 | 22387 ft | 321 kts | 295° |
| 2026-04-23 16:54 | 47.93572 | -87.82101 | 22033 ft | 322 kts | 295° |
| 2026-04-23 16:55 | 47.94609 | -87.85023 | 21668 ft | 322 kts | 294° |
| 2026-04-23 16:55 | 47.95658 | -87.87978 | 21326 ft | 322 kts | 294° |
| 2026-04-23 16:55 | 47.96699 | -87.90916 | 20974 ft | 322 kts | 294° |
| 2026-04-23 16:55 | 47.97745 | -87.93866 | 20612 ft | 321 kts | 294° |
| 2026-04-23 16:56 | 47.98774 | -87.96778 | 20217 ft | 315 kts | 294° |
| 2026-04-23 16:56 | 47.99784 | -87.99635 | 19837 ft | 309 kts | 294° |
| 2026-04-23 16:56 | 48.00453 | -88.01531 | 19573 ft | 306 kts | 294° |
| 2026-04-23 16:56 | 48.01759 | -88.05235 | 19063 ft | 301 kts | 294° |
| 2026-04-23 16:57 | 48.02727 | -88.07984 | 18664 ft | 298 kts | 294° |
| 2026-04-23 16:57 | 48.03674 | -88.10677 | 18290 ft | 295 kts | 294° |
| 2026-04-23 16:57 | 48.04627 | -88.13389 | 17880 ft | 293 kts | 293° |
| 2026-04-23 16:57 | 48.05561 | -88.16048 | 17460 ft | 291 kts | 293° |
| 2026-04-23 16:58 | 48.06497 | -88.18716 | 17105 ft | 289 kts | 293° |
| 2026-04-23 16:58 | 48.07417 | -88.21343 | 16716 ft | 287 kts | 293° |
| 2026-04-23 16:58 | 48.08340 | -88.23977 | 16333 ft | 285 kts | 292° |
| 2026-04-23 16:58 | 48.09261 | -88.26611 | 15937 ft | 284 kts | 292° |
| 2026-04-23 16:59 | 48.10164 | -88.29193 | 15535 ft | 283 kts | 292° |
| 2026-04-23 16:59 | 48.11074 | -88.31800 | 15138 ft | 281 kts | 292° |
| 2026-04-23 16:59 | 48.11967 | -88.34360 | 14739 ft | 280 kts | 292° |
| 2026-04-23 16:59 | 48.12864 | -88.36936 | 14361 ft | 279 kts | 292° |
| 2026-04-23 17:00 | 48.13761 | -88.39513 | 13943 ft | 278 kts | 292° |
| 2026-04-23 17:00 | 48.14652 | -88.42075 | 13494 ft | 278 kts | 291° |
| 2026-04-23 17:00 | 48.15548 | -88.44657 | 13024 ft | 280 kts | 292° |
| 2026-04-23 17:00 | 48.16434 | -88.47214 | 12521 ft | 282 kts | 292° |
| 2026-04-23 17:01 | 48.17345 | -88.49844 | 12003 ft | 283 kts | 292° |
| 2026-04-23 17:01 | 48.18243 | -88.52434 | 11512 ft | 283 kts | 291° |
| 2026-04-23 17:01 | 48.19148 | -88.55051 | 11015 ft | 283 kts | 291° |
| 2026-04-23 17:01 | 48.20043 | -88.57641 | 10532 ft | 284 kts | 291° |
| 2026-04-23 17:02 | 48.20648 | -88.59393 | 10208 ft | 283 kts | 291° |
| 2026-04-23 17:02 | 48.21718 | -88.62881 | 9513 ft | 269 kts | 279° |
| 2026-04-23 17:02 | 48.21909 | -88.65572 | 9025 ft | 255 kts | 267° |
| 2026-04-23 17:02 | 48.21968 | -88.68188 | 8509 ft | 247 kts | 266° |
| 2026-04-23 17:03 | 48.22019 | -88.70757 | 8116 ft | 253 kts | 267° |
| 2026-04-23 17:03 | 48.22073 | -88.73433 | 7747 ft | 261 kts | 266° |
| 2026-04-23 17:03 | 48.22129 | -88.76212 | 7374 ft | 262 kts | 267° |
| 2026-04-23 17:03 | 48.22183 | -88.78863 | 6963 ft | 250 kts | 267° |
| 2026-04-23 17:04 | 48.22237 | -88.81404 | 6601 ft | 237 kts | 266° |
| 2026-04-23 17:04 | 48.22289 | -88.83763 | 6414 ft | 219 kts | 266° |
| 2026-04-23 17:04 | 48.22339 | -88.85924 | 6305 ft | 198 kts | 266° |
| 2026-04-23 17:04 | 48.22382 | -88.87916 | 6203 ft | 189 kts | 265° |
| 2026-04-23 17:05 | 48.22418 | -88.89922 | 6136 ft | 195 kts | 265° |
| 2026-04-23 17:05 | 48.22452 | -88.91961 | 6108 ft | 199 kts | 265° |
| 2026-04-23 17:05 | 48.22490 | -88.94081 | 5961 ft | 211 kts | 265° |
| 2026-04-23 17:05 | 48.22528 | -88.96339 | 5780 ft | 220 kts | 266° |
| 2026-04-23 17:06 | 48.22573 | -88.98635 | 5725 ft | 224 kts | 266° |
| 2026-04-23 17:06 | 48.22621 | -89.00968 | 5790 ft | 222 kts | 266° |
| 2026-04-23 17:06 | 48.22668 | -89.03287 | 5797 ft | 223 kts | 266° |
| 2026-04-23 17:06 | 48.22715 | -89.05618 | 5824 ft | 223 kts | 266° |
| 2026-04-23 17:07 | 48.22762 | -89.07906 | 5853 ft | 223 kts | 266° |
| 2026-04-23 17:07 | 48.22808 | -89.10220 | 5867 ft | 223 kts | 266° |
| 2026-04-23 17:07 | 48.22853 | -89.12567 | 5806 ft | 227 kts | 266° |
| 2026-04-23 17:07 | 48.22897 | -89.14987 | 5587 ft | 237 kts | 266° |
| 2026-04-23 17:08 | 48.22943 | -89.17512 | 5350 ft | 246 kts | 266° |
| 2026-04-23 17:08 | 48.22991 | -89.20119 | 5107 ft | 253 kts | 266° |
| 2026-04-23 17:08 | 48.23040 | -89.22786 | 4843 ft | 259 kts | 266° |
| 2026-04-23 17:08 | 48.23088 | -89.25379 | 4586 ft | 246 kts | 266° |
| 2026-04-23 17:09 | 48.23135 | -89.27895 | 4316 ft | 234 kts | 266° |
| 2026-04-23 17:09 | 48.23179 | -89.30253 | 4067 ft | 222 kts | 266° |
| 2026-04-23 17:09 | 48.23223 | -89.32474 | 3965 ft | 205 kts | 266° |
| 2026-04-23 17:09 | 48.23267 | -89.34596 | 3965 ft | 205 kts | 265° |
| 2026-04-23 17:10 | 48.23311 | -89.36783 | 3939 ft | 210 kts | 266° |
| 2026-04-23 17:10 | 48.23352 | -89.39002 | 3925 ft | 215 kts | 266° |
| 2026-04-23 17:10 | 48.23392 | -89.41248 | 3930 ft | 218 kts | 266° |
| 2026-04-23 17:10 | 48.23434 | -89.43552 | 3928 ft | 220 kts | 266° |
| 2026-04-23 17:11 | 48.23472 | -89.45821 | 3915 ft | 215 kts | 266° |
| 2026-04-23 17:11 | 48.23508 | -89.48032 | 3914 ft | 210 kts | 265° |
| 2026-04-23 17:11 | 48.23545 | -89.50192 | 3909 ft | 206 kts | 266° |
| 2026-04-23 17:11 | 48.23912 | -89.52277 | 3893 ft | 211 kts | 301° |
| 2026-04-23 17:12 | 48.25075 | -89.53531 | 3911 ft | 206 kts | 337° |
| 2026-04-23 17:12 | 48.26405 | -89.54273 | 3907 ft | 202 kts | 340° |
| 2026-04-23 17:12 | 48.27748 | -89.54574 | 3889 ft | 191 kts | 13° |
| 2026-04-23 17:12 | 48.28814 | -89.53715 | 3888 ft | 160 kts | 60° |
| 2026-04-23 17:13 | 48.29314 | -89.52386 | 3899 ft | 142 kts | 71° |
| 2026-04-23 17:13 | 48.29792 | -89.51056 | 3877 ft | 148 kts | 71° |
| 2026-04-23 17:13 | 48.30296 | -89.49628 | 3684 ft | 155 kts | 71° |
| 2026-04-23 17:13 | 48.30786 | -89.48257 | 3322 ft | 148 kts | 71° |
| 2026-04-23 17:14 | 48.31368 | -89.47008 | 2917 ft | 149 kts | 46° |
| 2026-04-23 17:14 | 48.32161 | -89.46082 | 2529 ft | 139 kts | 54° |
| 2026-04-23 17:14 | 48.32932 | -89.45265 | 2128 ft | 140 kts | 27° |
| 2026-04-23 17:14 | 48.33830 | -89.44859 | 1844 ft | 130 kts | 29° |
| 2026-04-23 17:15 | 48.34525 | -89.44215 | 1526 ft | 110 kts | 75° |
| 2026-04-23 17:15 | 48.34631 | -89.43153 | 1276 ft | 100 kts | 77° |
| 2026-04-23 17:15 | 48.34945 | -89.42186 | 1234 ft | 102 kts | 75° |
| 2026-04-23 17:15 | 48.35136 | -89.41102 | 1297 ft | 114 kts | 77° |
| 2026-04-23 17:16 | 48.35458 | -89.39928 | 1385 ft | 129 kts | 75° |
| 2026-04-23 17:16 | 48.35757 | -89.38556 | 1455 ft | 148 kts | 75° |
| 2026-04-23 17:16 | 48.36145 | -89.37042 | 1237 ft | 157 kts | 74° |
| 2026-04-23 17:16 | 48.36492 | -89.35577 | 1003 ft | 142 kts | 71° |
| 2026-04-23 17:17 | 48.36811 | -89.34287 | 820 ft | 121 kts | 73° |
| 2026-04-23 17:17 | 48.37066 | -89.33195 | 700 ft | 102 kts | 73° |
| 2026-04-23 17:17 | 48.37207 | -89.32580 | 646 ft | 83 kts | 72° |
| 2026-04-23 17:17 | 48.37420 | -89.31670 | 631 ft | 47 kts | 71° |
| 2026-04-23 17:18 | 48.37526 | -89.31245 | 630 ft | 6 kts | 93° |
| 2026-04-23 17:18 | 48.37503 | -89.31206 | 630 ft | 9 kts | 153° |
| 2026-04-23 17:18 | 48.37386 | -89.31226 | 630 ft | 18 kts | 212° |
| 2026-04-23 17:19 | 48.37322 | -89.31226 | 631 ft | 11 kts | 160° |
| 2026-04-23 17:19 | 48.37297 | -89.31212 | 632 ft | 0 kts | 159° |
| 2026-04-23 17:19 | 48.37296 | -89.31212 | 632 ft | 0 kts | 159° |
| 2026-04-23 17:20 | 48.37294 | -89.31211 | 632 ft | 0 kts | 161° |